Portada
METAR-TAF:

METAR-TAF

Aeroports :

Yanbu, Aràbia Saudita

latitud: 24-09N, longitud: 038-04E, altitud: 8 m

Observació

L'informe es va fer fa 31 minuts, a les 18:00 UTC
Vent 15 kt del Oest
Temperatura 31°C
Humitat 66%
Pressió 1000 hPa
Visibilitat 10 km o més
sense núvols per sota de 1500 mi sense presència de cumulonimbus.

METAR: OEYN 111800Z 26015KT CAVOK 31/24 Q1000 NOSIG

Hora: 21:31 (18:31 UTC)

Pronòstic

L'informe es va fer fa 6 hores i 31 minuts, a les 12:00 UTC
Pronòstic vàlid del 11 a les 12 UTC al 12 a les 18 UTC
Vent 20 kt del Oest
Visibilitat: 7000 m
Temporalment
l' 11 a les 12 UTC al 11 a les 18 UTC
Visibilitat: 4000 m
torb alta de pols
Probabilitat 30% :
Temporalment
l' 11 a les 12 UTC al 11 a les 16 UTC
Visibilitat: 1500 m
Evolucionant progressivament
l' 11 a les 18 UTC al 11 a les 20 UTC
Vent 6 kt del Est

TAF: OEYN 111200Z 1112/1218 27020KT 7000 NSC TEMPO 1112/1118 4000 BLDU PROB30 TEMPO 1112/1116 1500 BECMG 1118/1120 09006KT

Observacions i pronòstics meteorològics de més de 4000 aeroports (METAR i TAF).

Les estacions disponibles són els punts grocs i vermells al mapa.

Posi el ratolí al punt desitjat per veure el nom de l'estació.

Feu clic per veure les observacions i els pronòstics meteorològics.

Per canviar el mapa: feu clic els botons verds amb una creu de color negre per apropar; al botó verd amb un guió per allunyar la imatge; o en les fletxes verdes per a mapes adjacents.


METAR-TAF: